EHWO/WOE METAR and TAF weather

Enter ICAO airport designator
Station Type Date Time Source
EHWO METAR 2018/12/13 15:55 UTC NOAA

EHWO 131555Z AUTO 06008KT 9999 NCD 01/M02 Q1020 BLU


Station Type Date Time Source
EHWO Decoded METAR 2018/12/13 15:55 UTC NOAA

Woensdrecht, Netherlands (EHWO) 51-27N 004-20E 17M
Dec 13, 2018 - 10:55 AM EST / 2018.12.13 1555 UTC
Wind: from the ENE (060 degrees) at 9 MPH (8 KT):0
Visibility: greater than 7 mile(s):0
Temperature: 33 F (1 C)
Windchill: 24 F (-4 C):1
Dew Point: 28 F (-2 C)
Relative Humidity: 80%
Pressure (altimeter): 30.12 in. Hg (1020 hPa)
ob: EHWO 131555Z AUTO 06008KT 9999 NCD 01/M02 Q1020 BLU
cycle: 16

Station Type Date Time Source
EHWO TAF 2018/12/13 10:51 UTC NOAA

TAF EHWO 130932Z 1310/1322 08008KT CAVOK


Example: see airport list